Time;durP1;ratioP1;P1;durP2;ratioP2;P2;SDS_P1;SDS_P2;PMS_P1;PMS_P2;Temp;Humidity;BMP_temperature;BMP_pressure;BME280_temperature;BME280_humidity;BME280_pressure;Samples;Min_cycle;Max_cycle;Signal;HPM_P1;HPM_P2
2021/05/06 00:09:59;;;;;;;;;;;12.70;57.00;;;;;;2071992;28;994;-54
2021/05/06 00:14:27;;;;;;;;;;;12.70;57.00;;;;;;2073896;28;1478;-54
2021/05/06 00:30:00;;;;;;;;;;;12.70;57.10;;;;;;2081142;28;702;-53
2021/05/06 00:32:58;;;;;;;;;;;12.60;57.10;;;;;;2083217;28;1007;-54
2021/05/06 00:34:17;;;;;;;;;;;12.60;57.10;;;;;;2073030;28;747;-55
2021/05/06 00:35:37;;;;;;;;;;;12.70;57.20;;;;;;2083657;28;706;-56
2021/05/06 00:36:56;;;;;;;;;;;12.60;57.10;;;;;;2089759;28;1933;-55
2021/05/06 00:38:19;;;;;;;;;;;12.60;57.10;;;;;;2081161;28;769;-55
2021/05/06 00:39:43;;;;;;;;;;;12.60;57.10;;;;;;2071818;28;1948;-54
2021/05/06 00:59:27;;;;;;;;;;;12.60;57.30;;;;;;2072347;28;1313;-55
2021/05/06 01:04:12;;;;;;;;;;;12.60;57.30;;;;;;2074010;28;1099;-54
2021/05/06 01:05:36;;;;;;;;;;;12.60;57.30;;;;;;2080074;28;626;-54
2021/05/06 01:08:30;;;;;;;;;;;12.60;57.30;;;;;;2079598;28;637;-54
2021/05/06 01:13:12;;;;;;;;;;;12.60;57.30;;;;;;2075463;28;1442;-54
2021/05/06 01:14:32;;;;;;;;;;;12.60;57.40;;;;;;2080932;28;1774;-54
2021/05/06 01:15:51;;;;;;;;;;;12.60;57.30;;;;;;2081751;28;700;-54
2021/05/06 01:17:10;;;;;;;;;;;12.50;57.30;;;;;;2072810;28;918;-54
2021/05/06 01:18:30;;;;;;;;;;;12.60;57.40;;;;;;2069547;28;728;-55
2021/05/06 01:19:49;;;;;;;;;;;12.50;57.30;;;;;;2072405;28;681;-54
2021/05/06 01:21:09;;;;;;;;;;;12.50;57.30;;;;;;2077339;28;1308;-56
2021/05/06 01:22:28;;;;;;;;;;;12.50;57.30;;;;;;2073064;28;637;-56
2021/05/06 01:23:47;;;;;;;;;;;12.50;57.40;;;;;;2078251;28;764;-53
2021/05/06 01:25:07;;;;;;;;;;;12.50;57.30;;;;;;2072963;28;711;-54
2021/05/06 01:28:08;;;;;;;;;;;12.50;57.90;;;;;;2081127;28;711;-52
2021/05/06 01:30:57;;;;;;;;;;;12.50;57.40;;;;;;2068578;28;1299;-55
2021/05/06 01:32:25;;;;;;;;;;;12.50;57.40;;;;;;2075989;28;949;-53
2021/05/06 01:35:12;;;;;;;;;;;12.50;57.90;;;;;;2078087;28;888;-54
2021/05/06 01:36:39;;;;;;;;;;;12.50;57.50;;;;;;2070053;28;1390;-55
2021/05/06 01:38:34;;;;;;;;;;;12.50;57.40;;;;;;2070134;28;778;-52
2021/05/06 01:39:55;;;;;;;;;;;12.50;57.50;;;;;;2070595;28;837;-54
2021/05/06 01:43:51;;;;;;;;;;;12.50;57.50;;;;;;2077522;28;1722;-57
2021/05/06 01:46:31;;;;;;;;;;;12.50;57.50;;;;;;2080492;28;1390;-53
2021/05/06 01:58:54;;;;;;;;;;;12.50;57.60;;;;;;2073794;28;732;-55
2021/05/06 02:00:17;;;;;;;;;;;12.50;57.60;;;;;;2071174;28;734;-54
2021/05/06 02:01:42;;;;;;;;;;;12.40;57.50;;;;;;2063866;28;1407;-54
2021/05/06 02:03:02;;;;;;;;;;;12.40;57.50;;;;;;2063116;28;1253;-54
2021/05/06 02:04:26;;;;;;;;;;;12.40;57.50;;;;;;2071211;28;1079;-54
2021/05/06 02:05:46;;;;;;;;;;;12.40;58.10;;;;;;2066305;28;1031;-55
2021/05/06 02:07:05;;;;;;;;;;;12.40;58.10;;;;;;2079005;28;1400;-54
2021/05/06 02:08:35;;;;;;;;;;;12.40;58.10;;;;;;2065147;28;1047;-56
2021/05/06 02:10:12;;;;;;;;;;;12.40;57.60;;;;;;2082769;28;1278;-54
2021/05/06 02:11:32;;;;;;;;;;;12.40;57.60;;;;;;2083006;28;1901;-55
2021/05/06 02:12:58;;;;;;;;;;;12.40;57.60;;;;;;2085000;28;1689;-56
2021/05/06 02:14:18;;;;;;;;;;;12.40;57.60;;;;;;2084828;28;1204;-53
2021/05/06 02:15:49;;;;;;;;;;;12.40;57.60;;;;;;2074291;28;1328;-54
2021/05/06 02:17:09;;;;;;;;;;;12.40;57.60;;;;;;2079683;28;1196;-54
2021/05/06 02:18:29;;;;;;;;;;;12.40;57.60;;;;;;2076690;28;1139;-54
2021/05/06 02:19:49;;;;;;;;;;;12.40;57.60;;;;;;2074187;28;1284;-54
2021/05/06 02:21:15;;;;;;;;;;;12.40;57.60;;;;;;2073077;28;1422;-56
2021/05/06 02:22:34;;;;;;;;;;;12.40;57.60;;;;;;2070502;28;1459;-57
2021/05/06 02:23:53;;;;;;;;;;;12.40;57.60;;;;;;2080425;28;1305;-54
2021/05/06 02:25:13;;;;;;;;;;;12.40;57.60;;;;;;2080365;28;1032;-56
2021/05/06 02:26:34;;;;;;;;;;;12.40;57.60;;;;;;2084997;28;1417;-56
2021/05/06 02:27:53;;;;;;;;;;;12.40;57.60;;;;;;2080631;28;1716;-54
2021/05/06 02:29:12;;;;;;;;;;;12.40;58.20;;;;;;2081297;28;1182;-55
2021/05/06 02:30:31;;;;;;;;;;;12.40;58.20;;;;;;2073903;28;1141;-54
2021/05/06 02:31:51;;;;;;;;;;;12.40;58.20;;;;;;2078245;28;1967;-56
2021/05/06 02:33:10;;;;;;;;;;;12.40;57.60;;;;;;2074437;28;1121;-56
2021/05/06 02:34:29;;;;;;;;;;;12.40;57.70;;;;;;2074736;28;1137;-55
2021/05/06 02:35:48;;;;;;;;;;;12.40;57.60;;;;;;2077186;28;1226;-56
2021/05/06 02:37:08;;;;;;;;;;;12.40;57.70;;;;;;2079839;28;887;-54
2021/05/06 02:38:27;;;;;;;;;;;12.40;57.80;;;;;;2084058;28;1361;-54
2021/05/06 02:39:47;;;;;;;;;;;12.40;57.80;;;;;;2082403;28;1342;-56
2021/05/06 02:41:06;;;;;;;;;;;12.40;57.80;;;;;;2081370;28;1143;-55
2021/05/06 02:42:25;;;;;;;;;;;12.30;57.70;;;;;;2076681;28;1386;-56
2021/05/06 02:43:44;;;;;;;;;;;12.40;57.80;;;;;;2082875;28;1755;-55
2021/05/06 02:45:04;;;;;;;;;;;12.40;58.30;;;;;;2080379;28;1440;-56
2021/05/06 02:46:27;;;;;;;;;;;12.40;57.80;;;;;;2079389;28;1480;-56
2021/05/06 02:47:46;;;;;;;;;;;12.30;57.70;;;;;;2079422;28;1233;-55
2021/05/06 02:49:05;;;;;;;;;;;12.30;57.70;;;;;;2076290;28;1272;-54
2021/05/06 02:50:25;;;;;;;;;;;12.40;57.80;;;;;;2077893;28;1302;-56
2021/05/06 02:51:49;;;;;;;;;;;12.40;57.80;;;;;;2077455;28;1964;-56
2021/05/06 02:53:13;;;;;;;;;;;12.30;57.70;;;;;;2081039;28;1222;-56
2021/05/06 02:54:38;;;;;;;;;;;12.30;57.70;;;;;;2082174;28;1122;-54
2021/05/06 02:59:39;;;;;;;;;;;12.30;57.70;;;;;;2073618;28;1156;-55
2021/05/06 03:04:03;;;;;;;;;;;12.30;57.70;;;;;;2080817;28;1197;-55
2021/05/06 03:05:24;;;;;;;;;;;12.30;57.70;;;;;;2083523;28;1160;-56
2021/05/06 03:06:55;;;;;;;;;;;12.30;57.70;;;;;;2080123;28;1510;-54
2021/05/06 03:08:27;;;;;;;;;;;12.30;58.30;;;;;;2082598;28;1429;-55
2021/05/06 03:23:18;;;;;;;;;;;12.40;58.00;;;;;;2078337;28;2268;-55
2021/05/06 03:24:37;;;;;;;;;;;12.40;58.20;;;;;;2082898;28;1269;-54
2021/05/06 03:25:57;;;;;;;;;;;12.40;58.10;;;;;;2080911;28;1028;-54
2021/05/06 03:27:17;;;;;;;;;;;12.40;58.50;;;;;;2072599;28;1121;-54
2021/05/06 03:28:40;;;;;;;;;;;12.40;58.60;;;;;;2077778;28;1306;-53
2021/05/06 03:31:50;;;;;;;;;;;12.30;58.70;;;;;;2079514;28;2001;-54
2021/05/06 03:43:56;;;;;;;;;;;12.30;59.00;;;;;;2082159;28;1368;-54
2021/05/06 03:48:40;;;;;;;;;;;12.30;59.00;;;;;;2081637;28;1399;-53
2021/05/06 04:16:40;;;;;;;;;;;12.20;58.90;;;;;;2057261;28;1529;-54
2021/05/06 04:21:43;;;;;;;;;;;12.20;58.90;;;;;;2080402;28;1242;-54
2021/05/06 04:26:12;;;;;;;;;;;12.20;58.90;;;;;;2076465;28;1198;-54
2021/05/06 04:35:44;;;;;;;;;;;12.20;58.90;;;;;;2080946;28;1232;-54
2021/05/06 04:37:04;;;;;;;;;;;12.20;59.10;;;;;;2073478;28;1491;-57
2021/05/06 04:38:23;;;;;;;;;;;12.20;59.20;;;;;;2077482;28;1144;-54
2021/05/06 04:55:26;;;;;;;;;;;12.20;60.00;;;;;;2083180;28;1236;-56
2021/05/06 04:57:07;;;;;;;;;;;12.20;60.00;;;;;;2084200;28;1543;-56
2021/05/06 05:03:33;;;;;;;;;;;12.20;60.10;;;;;;2079983;28;1142;-54
2021/05/06 05:04:52;;;;;;;;;;;12.20;60.00;;;;;;2065353;28;1260;-54
2021/05/06 05:06:14;;;;;;;;;;;12.20;60.10;;;;;;2076759;28;1426;-54
2021/05/06 05:07:38;;;;;;;;;;;12.10;60.00;;;;;;2074835;28;1095;-54
2021/05/06 05:10:32;;;;;;;;;;;12.10;60.00;;;;;;2079822;28;1266;-54
2021/05/06 05:13:58;;;;;;;;;;;12.10;59.90;;;;;;2072724;28;963;-54
2021/05/06 05:24:33;;;;;;;;;;;12.10;60.50;;;;;;2079585;28;1143;-55
2021/05/06 05:25:59;;;;;;;;;;;12.10;59.80;;;;;;2065923;28;1104;-53
2021/05/06 05:27:22;;;;;;;;;;;12.10;59.80;;;;;;2075497;28;1143;-54
2021/05/06 05:28:41;;;;;;;;;;;12.10;59.80;;;;;;2078251;28;1200;-55
2021/05/06 05:30:01;;;;;;;;;;;12.10;59.80;;;;;;2083816;28;1195;-54
2021/05/06 05:31:21;;;;;;;;;;;12.10;59.80;;;;;;2082048;28;1426;-53
2021/05/06 05:32:40;;;;;;;;;;;12.10;59.80;;;;;;2079103;28;1336;-54
2021/05/06 05:34:15;;;;;;;;;;;12.10;59.80;;;;;;2079885;28;958;-54
2021/05/06 05:36:56;;;;;;;;;;;12.10;59.70;;;;;;2071198;28;1431;-54
2021/05/06 05:38:26;;;;;;;;;;;12.10;59.70;;;;;;2074772;28;1012;-53
2021/05/06 05:55:39;;;;;;;;;;;12.10;60.50;;;;;;2080143;28;1422;-55
2021/05/06 05:56:58;;;;;;;;;;;12.10;60.50;;;;;;2081477;28;1576;-55
2021/05/06 05:58:17;;;;;;;;;;;12.10;60.60;;;;;;2079303;28;1194;-54
2021/05/06 05:59:37;;;;;;;;;;;12.10;60.80;;;;;;2081121;28;1228;-55
2021/05/06 06:00:56;;;;;;;;;;;12.10;61.60;;;;;;2072825;28;1054;-55
2021/05/06 06:02:15;;;;;;;;;;;12.10;60.80;;;;;;2078243;28;1559;-56
2021/05/06 06:03:34;;;;;;;;;;;12.10;60.90;;;;;;2081419;28;1669;-54
2021/05/06 06:04:54;;;;;;;;;;;12.10;61.00;;;;;;2081625;28;1562;-55
2021/05/06 06:06:13;;;;;;;;;;;12.10;60.90;;;;;;2081795;28;1435;-55
2021/05/06 06:07:32;;;;;;;;;;;12.10;61.00;;;;;;2080750;28;1231;-55
2021/05/06 06:08:51;;;;;;;;;;;12.10;61.00;;;;;;2071875;28;1249;-55
2021/05/06 06:10:10;;;;;;;;;;;12.10;60.90;;;;;;2078578;28;1156;-55
2021/05/06 06:11:32;;;;;;;;;;;12.10;60.90;;;;;;2081615;28;1972;-54
2021/05/06 06:12:51;;;;;;;;;;;12.10;61.00;;;;;;2071781;28;1329;-56
2021/05/06 06:14:10;;;;;;;;;;;12.10;60.90;;;;;;2077154;28;1326;-55
2021/05/06 06:17:08;;;;;;;;;;;12.10;61.00;;;;;;2080645;28;1460;-55
2021/05/06 06:19:49;;;;;;;;;;;12.10;60.80;;;;;;2073375;28;1256;-55
2021/05/06 06:21:31;;;;;;;;;;;12.10;60.80;;;;;;2077731;28;1089;-56
2021/05/06 06:22:51;;;;;;;;;;;12.10;61.00;;;;;;2082641;28;1334;-55
2021/05/06 06:24:10;;;;;;;;;;;12.10;60.80;;;;;;2080550;28;1385;-55
2021/05/06 06:25:29;;;;;;;;;;;12.10;60.80;;;;;;2073634;28;1271;-56
2021/05/06 06:26:49;;;;;;;;;;;12.10;60.80;;;;;;2079347;28;1428;-55
2021/05/06 06:28:11;;;;;;;;;;;12.10;60.80;;;;;;2082701;28;1174;-55
2021/05/06 06:29:32;;;;;;;;;;;12.10;60.80;;;;;;2073070;28;1285;-56
2021/05/06 06:30:52;;;;;;;;;;;12.10;60.70;;;;;;2071447;28;1414;-54
2021/05/06 06:32:14;;;;;;;;;;;12.00;61.50;;;;;;2079615;28;1906;-54
2021/05/06 06:33:33;;;;;;;;;;;12.10;60.70;;;;;;2080168;28;1042;-54
2021/05/06 06:34:53;;;;;;;;;;;12.10;60.70;;;;;;2083155;28;1100;-56
2021/05/06 06:36:12;;;;;;;;;;;12.00;60.60;;;;;;2082593;28;1374;-56
2021/05/06 06:37:31;;;;;;;;;;;12.00;60.50;;;;;;2080521;28;1544;-55
2021/05/06 06:38:50;;;;;;;;;;;12.00;60.50;;;;;;2083301;28;1335;-55
2021/05/06 06:40:10;;;;;;;;;;;12.10;60.60;;;;;;2074139;28;1190;-56
2021/05/06 06:41:29;;;;;;;;;;;12.10;60.60;;;;;;2080858;28;1079;-55
2021/05/06 06:42:48;;;;;;;;;;;12.10;60.50;;;;;;2082887;28;1352;-55
2021/05/06 06:44:08;;;;;;;;;;;12.10;60.60;;;;;;2078963;28;1176;-56
2021/05/06 06:45:27;;;;;;;;;;;12.10;61.30;;;;;;2081666;28;1294;-54
2021/05/06 06:47:00;;;;;;;;;;;12.10;61.40;;;;;;2064650;28;1417;-55
2021/05/06 06:48:19;;;;;;;;;;;12.20;60.50;;;;;;2076583;28;1087;-54
2021/05/06 06:49:39;;;;;;;;;;;12.20;61.00;;;;;;2081621;28;1098;-56
2021/05/06 06:50:58;;;;;;;;;;;12.30;60.10;;;;;;2080517;28;1510;-54
2021/05/06 06:52:17;;;;;;;;;;;12.30;59.80;;;;;;2079104;28;1974;-56
2021/05/06 06:53:36;;;;;;;;;;;12.40;59.70;;;;;;2081310;28;1386;-56
2021/05/06 06:54:55;;;;;;;;;;;12.50;59.60;;;;;;2084320;28;1181;-55
2021/05/06 06:56:15;;;;;;;;;;;12.50;59.40;;;;;;2070589;28;1421;-56
2021/05/06 06:57:34;;;;;;;;;;;12.60;59.40;;;;;;2069849;28;1282;-55
2021/05/06 06:58:54;;;;;;;;;;;12.60;59.20;;;;;;2076553;28;1130;-56
2021/05/06 07:00:13;;;;;;;;;;;12.70;59.30;;;;;;2069725;28;1459;-56
2021/05/06 07:01:32;;;;;;;;;;;12.80;59.80;;;;;;2077756;28;1508;-56
2021/05/06 07:02:52;;;;;;;;;;;12.90;59.90;;;;;;2081624;28;1285;-56
2021/05/06 07:04:11;;;;;;;;;;;12.90;59.50;;;;;;2070534;28;1572;-56
2021/05/06 07:05:30;;;;;;;;;;;12.90;59.80;;;;;;2069415;28;1464;-55
2021/05/06 07:06:49;;;;;;;;;;;12.90;59.10;;;;;;2079409;28;1469;-55
2021/05/06 07:08:14;;;;;;;;;;;12.90;59.00;;;;;;2069183;28;1311;-54
2021/05/06 07:09:34;;;;;;;;;;;12.90;59.00;;;;;;2075854;28;1423;-53
2021/05/06 07:10:53;;;;;;;;;;;12.90;59.00;;;;;;2071541;28;1075;-54
2021/05/06 07:12:13;;;;;;;;;;;13.00;59.10;;;;;;2077885;28;1906;-54
2021/05/06 07:13:32;;;;;;;;;;;13.00;59.10;;;;;;2073314;28;1630;-54
2021/05/06 07:14:51;;;;;;;;;;;13.00;59.10;;;;;;2078683;28;1136;-55
2021/05/06 07:16:10;;;;;;;;;;;13.00;59.00;;;;;;2081756;28;1442;-53
2021/05/06 07:17:29;;;;;;;;;;;13.00;59.40;;;;;;2080863;28;1051;-55
2021/05/06 07:18:49;;;;;;;;;;;13.10;58.90;;;;;;2081788;28;1234;-54
2021/05/06 07:20:08;;;;;;;;;;;13.10;58.70;;;;;;2080058;28;1249;-55
2021/05/06 07:21:27;;;;;;;;;;;13.20;58.70;;;;;;2080079;28;1151;-54
2021/05/06 07:22:46;;;;;;;;;;;13.20;58.50;;;;;;2072443;28;1203;-55
2021/05/06 07:24:06;;;;;;;;;;;13.30;58.40;;;;;;2078470;28;1127;-55
2021/05/06 07:25:26;;;;;;;;;;;13.30;58.20;;;;;;2080278;28;1270;-54
2021/05/06 07:26:45;;;;;;;;;;;13.40;58.00;;;;;;2081651;28;1526;-53
2021/05/06 07:28:08;;;;;;;;;;;13.40;57.90;;;;;;2081616;28;1384;-54
2021/05/06 07:29:27;;;;;;;;;;;13.50;57.60;;;;;;2071734;28;1570;-54
2021/05/06 07:30:47;;;;;;;;;;;13.60;57.60;;;;;;2075324;28;1368;-56
2021/05/06 07:32:06;;;;;;;;;;;13.60;57.30;;;;;;2072625;28;1946;-55
2021/05/06 07:33:25;;;;;;;;;;;13.70;57.20;;;;;;2079858;28;1642;-53
2021/05/06 07:34:45;;;;;;;;;;;13.80;57.00;;;;;;2081625;28;1508;-55
2021/05/06 07:36:04;;;;;;;;;;;13.80;56.80;;;;;;2081857;28;1049;-55
2021/05/06 07:37:23;;;;;;;;;;;13.90;56.60;;;;;;2066367;28;1719;-54
2021/05/06 07:38:43;;;;;;;;;;;14.00;56.50;;;;;;2074461;28;1247;-54
2021/05/06 07:40:02;;;;;;;;;;;14.10;56.20;;;;;;2063647;28;1038;-54
2021/05/06 07:41:21;;;;;;;;;;;14.10;56.00;;;;;;2075197;28;1295;-55
2021/05/06 07:42:41;;;;;;;;;;;14.20;55.80;;;;;;2075119;28;1317;-54
2021/05/06 07:44:00;;;;;;;;;;;14.30;55.70;;;;;;2077446;28;1018;-56
2021/05/06 07:45:19;;;;;;;;;;;14.40;55.60;;;;;;2079951;28;1597;-55
2021/05/06 07:46:38;;;;;;;;;;;14.40;55.90;;;;;;2072688;28;1492;-57
2021/05/06 07:47:58;;;;;;;;;;;14.40;55.30;;;;;;2073140;28;1649;-55
2021/05/06 07:49:17;;;;;;;;;;;14.50;55.30;;;;;;2065901;28;787;-52
2021/05/06 07:50:37;;;;;;;;;;;14.50;55.20;;;;;;2077097;28;961;-53
2021/05/06 07:51:56;;;;;;;;;;;14.50;55.10;;;;;;2083898;28;1902;-54
2021/05/06 07:53:21;;;;;;;;;;;14.50;55.10;;;;;;2081460;28;1367;-54
2021/05/06 07:54:40;;;;;;;;;;;14.50;55.00;;;;;;2082203;28;1109;-53
2021/05/06 07:55:59;;;;;;;;;;;14.50;55.00;;;;;;2081581;28;1179;-54
2021/05/06 07:57:18;;;;;;;;;;;14.60;55.10;;;;;;2080102;28;1418;-54
2021/05/06 07:58:37;;;;;;;;;;;14.60;55.10;;;;;;2082419;28;1079;-53
2021/05/06 07:59:56;;;;;;;;;;;14.60;55.50;;;;;;2072307;28;1166;-51
2021/05/06 08:01:16;;;;;;;;;;;14.60;55.00;;;;;;2079202;28;1128;-52
2021/05/06 08:02:35;;;;;;;;;;;14.60;55.00;;;;;;2073196;28;1373;-53
2021/05/06 08:03:54;;;;;;;;;;;14.70;55.10;;;;;;2069996;28;1401;-53
2021/05/06 08:05:14;;;;;;;;;;;14.60;55.00;;;;;;2077769;28;1245;-53
2021/05/06 08:06:33;;;;;;;;;;;14.60;55.00;;;;;;2073562;28;1496;-55
2021/05/06 08:07:52;;;;;;;;;;;14.60;55.10;;;;;;2077694;28;1213;-53
2021/05/06 08:09:11;;;;;;;;;;;14.70;55.20;;;;;;2076025;28;1200;-53
2021/05/06 08:10:31;;;;;;;;;;;14.70;55.20;;;;;;2070585;28;1120;-52
2021/05/06 08:11:55;;;;;;;;;;;14.70;55.20;;;;;;2078991;28;1902;-54
2021/05/06 08:13:14;;;;;;;;;;;14.60;55.20;;;;;;2083152;28;1182;-52
2021/05/06 08:14:33;;;;;;;;;;;14.60;55.20;;;;;;2085507;28;1168;-54
2021/05/06 08:15:53;;;;;;;;;;;14.60;55.30;;;;;;2083231;28;1122;-53
2021/05/06 08:17:12;;;;;;;;;;;14.60;55.30;;;;;;2072748;28;1372;-54
2021/05/06 08:18:31;;;;;;;;;;;14.60;55.40;;;;;;2079380;28;1087;-52
2021/05/06 08:19:51;;;;;;;;;;;14.60;55.40;;;;;;2082797;28;1219;-53
2021/05/06 08:21:10;;;;;;;;;;;14.60;55.50;;;;;;2084086;28;1555;-54
2021/05/06 08:22:29;;;;;;;;;;;14.60;55.50;;;;;;2073741;28;1167;-51
2021/05/06 08:23:48;;;;;;;;;;;14.60;55.60;;;;;;2070954;28;860;-53
2021/05/06 08:25:08;;;;;;;;;;;14.60;55.60;;;;;;2072428;28;1131;-53
2021/05/06 08:26:27;;;;;;;;;;;14.60;55.70;;;;;;2070544;28;1417;-53
2021/05/06 08:27:47;;;;;;;;;;;14.60;55.70;;;;;;2068176;28;1271;-53
2021/05/06 08:29:06;;;;;;;;;;;14.60;56.30;;;;;;2058788;28;1055;-53
2021/05/06 08:30:26;;;;;;;;;;;14.60;56.30;;;;;;2070419;28;1337;-52
2021/05/06 08:31:46;;;;;;;;;;;14.60;55.80;;;;;;2083859;28;1941;-53
2021/05/06 08:33:05;;;;;;;;;;;14.60;56.00;;;;;;2074923;28;1267;-53
2021/05/06 08:34:25;;;;;;;;;;;14.60;56.00;;;;;;2081015;28;1041;-53
2021/05/06 08:35:44;;;;;;;;;;;14.60;56.00;;;;;;2071058;28;1257;-52
2021/05/06 08:37:03;;;;;;;;;;;14.60;56.00;;;;;;2068416;28;1478;-55
2021/05/06 08:38:22;;;;;;;;;;;14.60;56.00;;;;;;2075941;28;1203;-52
2021/05/06 08:39:42;;;;;;;;;;;14.60;56.00;;;;;;2076033;28;1268;-52
2021/05/06 08:41:01;;;;;;;;;;;14.60;56.10;;;;;;2077337;28;1414;-53
2021/05/06 08:42:21;;;;;;;;;;;14.60;56.10;;;;;;2064444;28;1433;-52
2021/05/06 08:43:40;;;;;;;;;;;14.60;56.10;;;;;;2075382;28;1329;-53
2021/05/06 08:45:01;;;;;;;;;;;14.60;56.10;;;;;;2081391;28;1446;-53
2021/05/06 08:46:20;;;;;;;;;;;14.60;56.60;;;;;;2071068;28;1620;-54
2021/05/06 08:47:40;;;;;;;;;;;14.60;56.10;;;;;;2064202;28;1309;-53
2021/05/06 08:48:59;;;;;;;;;;;14.60;56.10;;;;;;2074437;28;1199;-53
2021/05/06 08:50:19;;;;;;;;;;;14.60;56.10;;;;;;2078979;28;1232;-54
2021/05/06 08:51:38;;;;;;;;;;;14.60;56.20;;;;;;2071426;28;1972;-53
2021/05/06 08:52:57;;;;;;;;;;;14.60;56.20;;;;;;2078339;28;1044;-54
2021/05/06 08:54:17;;;;;;;;;;;14.60;56.20;;;;;;2075938;28;1435;-53
2021/05/06 08:55:35;;;;;;;;;;;14.60;56.20;;;;;;2073185;28;1116;-52
2021/05/06 08:56:55;;;;;;;;;;;14.60;56.20;;;;;;2067668;28;1861;-53
2021/05/06 08:58:15;;;;;;;;;;;14.60;56.10;;;;;;2075950;28;1260;-53
2021/05/06 08:59:33;;;;;;;;;;;14.60;56.70;;;;;;2071893;28;1538;-53
2021/05/06 09:00:53;;;;;;;;;;;14.60;56.70;;;;;;2063743;28;1193;-54
2021/05/06 09:02:12;;;;;;;;;;;14.60;56.20;;;;;;2069132;28;1199;-54
2021/05/06 09:03:32;;;;;;;;;;;14.60;56.20;;;;;;2069552;28;1147;-54
2021/05/06 09:04:51;;;;;;;;;;;14.60;56.30;;;;;;2070456;28;1155;-55
2021/05/06 09:06:14;;;;;;;;;;;14.60;56.30;;;;;;2077314;28;1251;-53
2021/05/06 09:07:33;;;;;;;;;;;14.60;56.40;;;;;;2079614;28;1543;-55
2021/05/06 09:08:56;;;;;;;;;;;14.60;56.50;;;;;;2080696;28;1124;-54
2021/05/06 09:10:34;;;;;;;;;;;14.60;56.50;;;;;;2070997;28;1410;-55
2021/05/06 09:11:54;;;;;;;;;;;14.50;56.50;;;;;;2083442;28;1906;-55
2021/05/06 09:13:29;;;;;;;;;;;14.50;56.60;;;;;;2073107;28;1480;-55
2021/05/06 09:14:49;;;;;;;;;;;14.50;56.60;;;;;;2081337;28;1360;-55
2021/05/06 09:16:08;;;;;;;;;;;14.50;56.70;;;;;;2073770;28;1243;-53
2021/05/06 09:17:27;;;;;;;;;;;14.50;56.70;;;;;;2076844;28;1518;-55
2021/05/06 09:18:47;;;;;;;;;;;14.50;56.80;;;;;;2084072;28;1313;-56
2021/05/06 09:20:10;;;;;;;;;;;14.50;56.80;;;;;;2073425;28;1275;-54
2021/05/06 09:21:30;;;;;;;;;;;14.50;56.90;;;;;;2079205;28;1138;-54
2021/05/06 09:22:50;;;;;;;;;;;14.50;57.00;;;;;;2081912;28;1244;-53
2021/05/06 09:24:13;;;;;;;;;;;14.50;57.00;;;;;;2082467;28;1209;-54
2021/05/06 09:25:33;;;;;;;;;;;14.50;57.10;;;;;;2083502;28;1392;-54
2021/05/06 09:26:57;;;;;;;;;;;14.40;57.00;;;;;;2083866;28;1441;-52
2021/05/06 09:28:16;;;;;;;;;;;14.40;57.60;;;;;;2065107;28;1321;-53
2021/05/06 09:29:37;;;;;;;;;;;14.40;57.20;;;;;;2074217;28;1621;-52
2021/05/06 09:30:59;;;;;;;;;;;14.40;57.20;;;;;;2070503;28;1169;-56
2021/05/06 09:32:20;;;;;;;;;;;14.40;57.30;;;;;;2067965;28;1910;-54
2021/05/06 09:33:40;;;;;;;;;;;14.40;57.30;;;;;;2077784;28;1182;-52
2021/05/06 09:34:59;;;;;;;;;;;14.30;57.80;;;;;;2083407;28;1087;-55
2021/05/06 09:36:18;;;;;;;;;;;14.30;57.40;;;;;;2082201;28;1453;-55
2021/05/06 09:37:38;;;;;;;;;;;14.40;57.90;;;;;;2082957;28;1304;-53
2021/05/06 09:38:57;;;;;;;;;;;14.30;57.90;;;;;;2074710;28;1457;-54
2021/05/06 09:40:17;;;;;;;;;;;14.30;57.80;;;;;;2069721;28;1216;-54
2021/05/06 09:41:36;;;;;;;;;;;14.30;58.20;;;;;;2077112;28;1525;-56
2021/05/06 09:42:56;;;;;;;;;;;14.30;58.40;;;;;;2071712;28;1337;-54
2021/05/06 09:44:20;;;;;;;;;;;14.30;58.50;;;;;;2078639;28;1190;-53
2021/05/06 09:45:38;;;;;;;;;;;14.30;58.80;;;;;;2080932;28;1310;-53
2021/05/06 09:46:58;;;;;;;;;;;14.40;58.90;;;;;;2075016;28;1522;-53
2021/05/06 09:48:19;;;;;;;;;;;14.40;59.30;;;;;;2072038;28;1067;-55
2021/05/06 09:49:39;;;;;;;;;;;14.40;58.40;;;;;;2071799;28;1087;-54
2021/05/06 09:50:59;;;;;;;;;;;14.30;58.20;;;;;;2081285;28;1186;-53
2021/05/06 09:52:19;;;;;;;;;;;14.30;58.20;;;;;;2083128;28;1907;-54
2021/05/06 09:53:38;;;;;;;;;;;14.30;58.20;;;;;;2080217;28;1415;-54
2021/05/06 09:54:57;;;;;;;;;;;14.30;58.40;;;;;;2078599;28;1345;-53
2021/05/06 09:56:16;;;;;;;;;;;14.30;58.40;;;;;;2080687;28;1325;-54
2021/05/06 09:57:36;;;;;;;;;;;14.20;58.40;;;;;;2073739;28;1272;-56
2021/05/06 09:58:55;;;;;;;;;;;14.20;58.50;;;;;;2082650;28;1544;-54
2021/05/06 10:00:15;;;;;;;;;;;14.20;59.10;;;;;;2075212;28;1118;-56
2021/05/06 10:01:35;;;;;;;;;;;14.20;58.50;;;;;;2080921;28;1299;-54
2021/05/06 10:02:54;;;;;;;;;;;14.20;58.60;;;;;;2070504;28;1154;-56
2021/05/06 10:04:20;;;;;;;;;;;14.20;58.70;;;;;;2063835;28;1298;-56
2021/05/06 10:05:40;;;;;;;;;;;14.20;58.70;;;;;;2076072;28;1316;-54
2021/05/06 10:07:22;;;;;;;;;;;14.20;58.70;;;;;;2081281;28;1443;-54
2021/05/06 10:08:41;;;;;;;;;;;14.10;59.20;;;;;;2069718;28;1374;-56
2021/05/06 10:10:02;;;;;;;;;;;14.10;58.80;;;;;;2077081;28;1494;-56
2021/05/06 10:11:21;;;;;;;;;;;14.10;58.80;;;;;;2071765;28;1378;-56
2021/05/06 10:12:41;;;;;;;;;;;14.20;58.90;;;;;;2074052;28;1234;-54
2021/05/06 10:14:01;;;;;;;;;;;14.10;58.90;;;;;;2070690;28;1152;-55
2021/05/06 10:15:20;;;;;;;;;;;14.10;58.90;;;;;;2073382;28;1253;-55
2021/05/06 10:16:39;;;;;;;;;;;14.10;58.90;;;;;;2082542;28;1456;-54
2021/05/06 10:17:59;;;;;;;;;;;14.10;59.00;;;;;;2073847;28;1241;-56
2021/05/06 10:19:19;;;;;;;;;;;14.10;59.00;;;;;;2076536;28;1611;-54
2021/05/06 10:20:38;;;;;;;;;;;14.10;59.10;;;;;;2074077;28;1313;-55
2021/05/06 10:21:57;;;;;;;;;;;14.10;59.10;;;;;;2073918;28;1333;-55
2021/05/06 10:23:16;;;;;;;;;;;14.00;59.00;;;;;;2069545;28;1401;-56
2021/05/06 10:24:36;;;;;;;;;;;14.00;59.10;;;;;;2071101;28;1231;-57
2021/05/06 10:25:55;;;;;;;;;;;14.00;59.10;;;;;;2073426;28;1301;-56
2021/05/06 10:27:15;;;;;;;;;;;14.00;59.10;;;;;;2070965;28;1493;-55
2021/05/06 10:28:34;;;;;;;;;;;14.00;59.20;;;;;;2079655;28;1096;-55
2021/05/06 10:29:57;;;;;;;;;;;14.00;59.20;;;;;;2065775;28;1454;-55
2021/05/06 10:31:16;;;;;;;;;;;14.00;59.80;;;;;;2074793;28;1434;-56
2021/05/06 10:32:35;;;;;;;;;;;14.00;59.40;;;;;;2074674;28;1201;-55
2021/05/06 10:33:54;;;;;;;;;;;14.00;59.40;;;;;;2079699;28;1229;-55
2021/05/06 10:35:15;;;;;;;;;;;14.00;59.40;;;;;;2076986;28;1202;-54
2021/05/06 10:36:34;;;;;;;;;;;14.00;59.40;;;;;;2071527;28;1546;-54
2021/05/06 10:37:57;;;;;;;;;;;14.00;59.40;;;;;;2075767;28;1449;-56
2021/05/06 10:39:16;;;;;;;;;;;14.00;59.40;;;;;;2074115;28;1557;-55
2021/05/06 10:40:36;;;;;;;;;;;14.00;59.40;;;;;;2078555;28;1050;-55
2021/05/06 10:41:57;;;;;;;;;;;14.00;59.90;;;;;;2073218;28;1257;-55
2021/05/06 10:43:25;;;;;;;;;;;14.00;59.40;;;;;;2073173;28;1236;-56
2021/05/06 10:44:44;;;;;;;;;;;14.00;59.40;;;;;;2064197;28;1206;-55
2021/05/06 10:46:04;;;;;;;;;;;14.00;59.40;;;;;;2075160;28;1111;-54
2021/05/06 10:47:50;;;;;;;;;;;14.00;59.40;;;;;;2070917;28;1657;-56
2021/05/06 10:49:10;;;;;;;;;;;14.00;59.40;;;;;;2082744;28;1138;-56
2021/05/06 10:50:33;;;;;;;;;;;14.00;59.90;;;;;;2081435;28;1112;-55
2021/05/06 10:52:18;;;;;;;;;;;14.00;59.40;;;;;;2084456;28;1992;-55
2021/05/06 10:53:37;;;;;;;;;;;14.00;59.40;;;;;;2084083;28;1649;-54
2021/05/06 10:54:56;;;;;;;;;;;13.90;59.90;;;;;;2071685;28;1220;-56
2021/05/06 10:56:19;;;;;;;;;;;14.00;60.10;;;;;;2077290;28;1199;-54
2021/05/06 10:57:38;;;;;;;;;;;14.00;59.50;;;;;;2080535;28;1374;-55
2021/05/06 10:58:57;;;;;;;;;;;13.90;59.40;;;;;;2071666;28;1060;-56
2021/05/06 11:00:26;;;;;;;;;;;14.00;59.50;;;;;;2064089;28;1197;-54
2021/05/06 11:01:45;;;;;;;;;;;13.90;59.50;;;;;;2076313;28;1463;-53
2021/05/06 11:03:06;;;;;;;;;;;13.90;59.50;;;;;;2079662;28;1424;-55
2021/05/06 11:04:38;;;;;;;;;;;13.90;59.50;;;;;;2081429;28;934;-54
2021/05/06 11:05:58;;;;;;;;;;;13.90;60.10;;;;;;2080679;28;1356;-54
2021/05/06 11:07:18;;;;;;;;;;;13.90;59.60;;;;;;2072571;28;1484;-54
2021/05/06 11:08:38;;;;;;;;;;;13.90;59.60;;;;;;2078511;28;1237;-53
2021/05/06 11:09:59;;;;;;;;;;;13.90;59.60;;;;;;2082252;28;1408;-55
2021/05/06 11:11:18;;;;;;;;;;;13.90;59.60;;;;;;2072505;28;1363;-55
2021/05/06 11:12:38;;;;;;;;;;;13.90;59.70;;;;;;2078086;28;1640;-54
2021/05/06 11:14:05;;;;;;;;;;;13.90;59.70;;;;;;2081297;28;1194;-55
2021/05/06 11:15:25;;;;;;;;;;;13.90;59.70;;;;;;2072318;28;1194;-55
2021/05/06 11:16:44;;;;;;;;;;;13.90;59.70;;;;;;2078879;28;1431;-56
2021/05/06 11:18:04;;;;;;;;;;;13.90;59.70;;;;;;2072204;28;1452;-56
2021/05/06 11:19:41;;;;;;;;;;;13.90;59.70;;;;;;2065878;28;1074;-56
2021/05/06 11:21:01;;;;;;;;;;;13.90;59.80;;;;;;2080483;28;1484;-55
2021/05/06 11:22:39;;;;;;;;;;;13.90;59.80;;;;;;2083639;28;1179;-55
2021/05/06 11:24:13;;;;;;;;;;;13.90;59.80;;;;;;2072282;28;1288;-55
2021/05/06 11:25:46;;;;;;;;;;;13.90;59.70;;;;;;2083818;28;1389;-55